sensor_id;sensor_type;location;lat;lon;timestamp;P1;durP1;ratioP1;P2;durP2;ratioP2
43994;SDS011;51687;52.160;5.298;2022-09-09T00:00:24;2.67;;;0.60;;
43994;SDS011;51687;52.160;5.298;2022-09-09T00:03:02;3.10;;;0.85;;
43994;SDS011;51687;52.160;5.298;2022-09-09T00:05:50;1.13;;;0.82;;
43994;SDS011;51687;52.160;5.298;2022-09-09T00:08:34;4.93;;;0.70;;
43994;SDS011;51687;52.160;5.298;2022-09-09T00:11:04;2.05;;;0.80;;
43994;SDS011;51687;52.160;5.298;2022-09-09T00:13:34;2.92;;;0.75;;
43994;SDS011;51687;52.160;5.298;2022-09-09T00:16:22;1.33;;;0.60;;
43994;SDS011;51687;52.160;5.298;2022-09-09T00:21:43;1.30;;;0.77;;
43994;SDS011;51687;52.160;5.298;2022-09-09T00:24:26;1.63;;;0.70;;
43994;SDS011;51687;52.160;5.298;2022-09-09T00:27:04;1.45;;;0.82;;
43994;SDS011;51687;52.160;5.298;2022-09-09T00:29:41;1.30;;;1.08;;
43994;SDS011;51687;52.160;5.298;2022-09-09T00:32:18;1.15;;;0.70;;
43994;SDS011;51687;52.160;5.298;2022-09-09T00:34:53;2.65;;;1.17;;
43994;SDS011;51687;52.160;5.298;2022-09-09T00:37:24;1.73;;;0.90;;
43994;SDS011;51687;52.160;5.298;2022-09-09T00:39:53;1.95;;;0.90;;
43994;SDS011;51687;52.160;5.298;2022-09-09T00:42:24;1.83;;;1.00;;
43994;SDS011;51687;52.160;5.298;2022-09-09T00:47:53;1.00;;;0.90;;
43994;SDS011;51687;52.160;5.298;2022-09-09T00:55:51;2.22;;;1.20;;
43994;SDS011;51687;52.160;5.298;2022-09-09T00:58:29;1.85;;;0.70;;
43994;SDS011;51687;52.160;5.298;2022-09-09T01:14:13;3.38;;;1.10;;
43994;SDS011;51687;52.160;5.298;2022-09-09T01:16:50;1.98;;;1.10;;
43994;SDS011;51687;52.160;5.298;2022-09-09T01:20:08;3.58;;;1.20;;
43994;SDS011;51687;52.160;5.298;2022-09-09T01:28:16;2.53;;;1.60;;
43994;SDS011;51687;52.160;5.298;2022-09-09T01:30:48;3.08;;;1.38;;
43994;SDS011;51687;52.160;5.298;2022-09-09T01:33:16;2.38;;;1.50;;
43994;SDS011;51687;52.160;5.298;2022-09-09T01:38:28;3.25;;;1.20;;
43994;SDS011;51687;52.160;5.298;2022-09-09T01:40:57;1.92;;;1.45;;
43994;SDS011;51687;52.160;5.298;2022-09-09T01:43:24;1.65;;;1.25;;
43994;SDS011;51687;52.160;5.298;2022-09-09T01:45:53;3.33;;;1.50;;
43994;SDS011;51687;52.160;5.298;2022-09-09T01:48:22;3.08;;;1.52;;
43994;SDS011;51687;52.160;5.298;2022-09-09T01:50:50;3.80;;;1.33;;
43994;SDS011;51687;52.160;5.298;2022-09-09T01:53:18;2.55;;;1.60;;
43994;SDS011;51687;52.160;5.298;2022-09-09T01:56:04;1.75;;;1.20;;
43994;SDS011;51687;52.160;5.298;2022-09-09T01:59:14;3.03;;;1.80;;
43994;SDS011;51687;52.160;5.298;2022-09-09T02:04:50;4.03;;;1.65;;
43994;SDS011;51687;52.160;5.298;2022-09-09T02:07:32;1.50;;;1.40;;
43994;SDS011;51687;52.160;5.298;2022-09-09T02:10:03;4.60;;;1.98;;
43994;SDS011;51687;52.160;5.298;2022-09-09T02:12:44;2.25;;;1.75;;
43994;SDS011;51687;52.160;5.298;2022-09-09T02:15:24;3.17;;;1.65;;
43994;SDS011;51687;52.160;5.298;2022-09-09T02:17:56;2.20;;;1.70;;
43994;SDS011;51687;52.160;5.298;2022-09-09T02:20:24;1.83;;;1.40;;
43994;SDS011;51687;52.160;5.298;2022-09-09T02:22:58;2.17;;;1.83;;
43994;SDS011;51687;52.160;5.298;2022-09-09T02:25:26;2.22;;;1.70;;
43994;SDS011;51687;52.160;5.298;2022-09-09T02:27:55;6.50;;;1.90;;
43994;SDS011;51687;52.160;5.298;2022-09-09T02:30:24;2.65;;;1.65;;
43994;SDS011;51687;52.160;5.298;2022-09-09T02:32:56;2.17;;;1.60;;
43994;SDS011;51687;52.160;5.298;2022-09-09T02:35:24;3.28;;;1.55;;
43994;SDS011;51687;52.160;5.298;2022-09-09T02:37:55;3.03;;;1.70;;
43994;SDS011;51687;52.160;5.298;2022-09-09T02:40:25;3.13;;;1.90;;
43994;SDS011;51687;52.160;5.298;2022-09-09T02:42:53;2.95;;;1.90;;
43994;SDS011;51687;52.160;5.298;2022-09-09T02:45:25;2.75;;;1.70;;
43994;SDS011;51687;52.160;5.298;2022-09-09T02:51:10;4.20;;;2.05;;
43994;SDS011;51687;52.160;5.298;2022-09-09T02:54:12;2.35;;;1.50;;
43994;SDS011;51687;52.160;5.298;2022-09-09T02:57:00;2.13;;;1.92;;
43994;SDS011;51687;52.160;5.298;2022-09-09T02:59:34;2.92;;;1.65;;
43994;SDS011;51687;52.160;5.298;2022-09-09T03:02:01;5.88;;;2.55;;
43994;SDS011;51687;52.160;5.298;2022-09-09T03:04:29;2.10;;;1.77;;
43994;SDS011;51687;52.160;5.298;2022-09-09T03:06:57;2.72;;;1.98;;
43994;SDS011;51687;52.160;5.298;2022-09-09T03:09:24;3.53;;;2.50;;
43994;SDS011;51687;52.160;5.298;2022-09-09T03:11:52;2.20;;;1.95;;
43994;SDS011;51687;52.160;5.298;2022-09-09T03:14:19;2.45;;;2.25;;
43994;SDS011;51687;52.160;5.298;2022-09-09T03:16:47;4.43;;;2.75;;
43994;SDS011;51687;52.160;5.298;2022-09-09T03:19:14;3.15;;;2.05;;
43994;SDS011;51687;52.160;5.298;2022-09-09T03:21:41;2.38;;;2.08;;
43994;SDS011;51687;52.160;5.298;2022-09-09T03:24:08;3.20;;;2.30;;
43994;SDS011;51687;52.160;5.298;2022-09-09T03:26:35;3.55;;;2.15;;
43994;SDS011;51687;52.160;5.298;2022-09-09T03:29:04;4.65;;;2.60;;
43994;SDS011;51687;52.160;5.298;2022-09-09T03:31:33;3.30;;;2.20;;
43994;SDS011;51687;52.160;5.298;2022-09-09T03:34:02;1.92;;;1.83;;
43994;SDS011;51687;52.160;5.298;2022-09-09T03:36:29;3.45;;;2.50;;
43994;SDS011;51687;52.160;5.298;2022-09-09T03:38:56;2.20;;;2.00;;
43994;SDS011;51687;52.160;5.298;2022-09-09T03:41:22;4.53;;;2.50;;
43994;SDS011;51687;52.160;5.298;2022-09-09T03:43:50;3.83;;;2.35;;
43994;SDS011;51687;52.160;5.298;2022-09-09T03:46:20;2.90;;;2.45;;
43994;SDS011;51687;52.160;5.298;2022-09-09T03:48:48;2.55;;;2.35;;
43994;SDS011;51687;52.160;5.298;2022-09-09T03:51:15;2.30;;;2.10;;
43994;SDS011;51687;52.160;5.298;2022-09-09T03:53:42;3.72;;;2.60;;
43994;SDS011;51687;52.160;5.298;2022-09-09T03:56:09;3.25;;;2.40;;
43994;SDS011;51687;52.160;5.298;2022-09-09T03:58:37;2.17;;;1.92;;
43994;SDS011;51687;52.160;5.298;2022-09-09T04:01:08;2.97;;;2.10;;
43994;SDS011;51687;52.160;5.298;2022-09-09T04:03:36;4.30;;;2.58;;
43994;SDS011;51687;52.160;5.298;2022-09-09T04:06:04;2.50;;;2.30;;
43994;SDS011;51687;52.160;5.298;2022-09-09T04:08:33;5.15;;;2.60;;
43994;SDS011;51687;52.160;5.298;2022-09-09T04:11:02;2.97;;;2.20;;
43994;SDS011;51687;52.160;5.298;2022-09-09T04:13:33;7.78;;;2.33;;
43994;SDS011;51687;52.160;5.298;2022-09-09T04:16:01;2.53;;;2.33;;
43994;SDS011;51687;52.160;5.298;2022-09-09T04:18:30;5.95;;;2.58;;
43994;SDS011;51687;52.160;5.298;2022-09-09T04:20:57;2.53;;;2.33;;
43994;SDS011;51687;52.160;5.298;2022-09-09T04:23:25;2.92;;;2.15;;
43994;SDS011;51687;52.160;5.298;2022-09-09T04:25:55;2.70;;;2.28;;
43994;SDS011;51687;52.160;5.298;2022-09-09T04:28:24;2.92;;;2.33;;
43994;SDS011;51687;52.160;5.298;2022-09-09T04:30:54;6.32;;;2.10;;
43994;SDS011;51687;52.160;5.298;2022-09-09T04:35:51;2.85;;;2.50;;
43994;SDS011;51687;52.160;5.298;2022-09-09T04:38:20;5.95;;;2.00;;
43994;SDS011;51687;52.160;5.298;2022-09-09T04:40:49;3.10;;;2.33;;
43994;SDS011;51687;52.160;5.298;2022-09-09T04:43:17;4.30;;;2.60;;
43994;SDS011;51687;52.160;5.298;2022-09-09T04:45:48;6.35;;;2.85;;
43994;SDS011;51687;52.160;5.298;2022-09-09T04:48:17;4.07;;;2.28;;
43994;SDS011;51687;52.160;5.298;2022-09-09T04:50:53;5.60;;;2.20;;
43994;SDS011;51687;52.160;5.298;2022-09-09T04:53:27;3.55;;;1.85;;
43994;SDS011;51687;52.160;5.298;2022-09-09T04:56:28;3.15;;;2.13;;
43994;SDS011;51687;52.160;5.298;2022-09-09T04:58:47;8.70;;;2.50;;
43994;SDS011;51687;52.160;5.298;2022-09-09T05:01:18;3.45;;;2.40;;
43994;SDS011;51687;52.160;5.298;2022-09-09T05:03:47;8.18;;;2.25;;
43994;SDS011;51687;52.160;5.298;2022-09-09T05:06:15;3.33;;;1.80;;
43994;SDS011;51687;52.160;5.298;2022-09-09T05:08:43;2.92;;;2.08;;
43994;SDS011;51687;52.160;5.298;2022-09-09T05:11:14;2.67;;;2.07;;
43994;SDS011;51687;52.160;5.298;2022-09-09T05:13:42;2.92;;;2.50;;
43994;SDS011;51687;52.160;5.298;2022-09-09T05:16:11;4.88;;;2.72;;
43994;SDS011;51687;52.160;5.298;2022-09-09T05:18:39;3.38;;;2.45;;
43994;SDS011;51687;52.160;5.298;2022-09-09T05:21:09;2.70;;;2.03;;
43994;SDS011;51687;52.160;5.298;2022-09-09T05:23:36;6.78;;;2.53;;
43994;SDS011;51687;52.160;5.298;2022-09-09T05:26:04;7.30;;;2.27;;
43994;SDS011;51687;52.160;5.298;2022-09-09T05:28:33;5.47;;;2.47;;
43994;SDS011;51687;52.160;5.298;2022-09-09T05:31:11;4.72;;;2.55;;
43994;SDS011;51687;52.160;5.298;2022-09-09T05:33:40;4.90;;;2.20;;
43994;SDS011;51687;52.160;5.298;2022-09-09T05:36:10;3.13;;;2.40;;
43994;SDS011;51687;52.160;5.298;2022-09-09T05:38:41;3.65;;;2.03;;
43994;SDS011;51687;52.160;5.298;2022-09-09T05:41:09;4.87;;;2.20;;
43994;SDS011;51687;52.160;5.298;2022-09-09T05:43:37;3.25;;;2.15;;
43994;SDS011;51687;52.160;5.298;2022-09-09T05:46:06;5.30;;;2.10;;
43994;SDS011;51687;52.160;5.298;2022-09-09T05:48:37;3.67;;;2.25;;
43994;SDS011;51687;52.160;5.298;2022-09-09T05:51:06;3.60;;;1.80;;
43994;SDS011;51687;52.160;5.298;2022-09-09T05:53:35;9.10;;;2.50;;
43994;SDS011;51687;52.160;5.298;2022-09-09T05:56:05;4.50;;;2.25;;
43994;SDS011;51687;52.160;5.298;2022-09-09T05:58:36;6.30;;;2.10;;
43994;SDS011;51687;52.160;5.298;2022-09-09T06:01:05;5.47;;;2.63;;
43994;SDS011;51687;52.160;5.298;2022-09-09T06:03:34;4.30;;;2.10;;
43994;SDS011;51687;52.160;5.298;2022-09-09T06:06:03;4.05;;;1.98;;
43994;SDS011;51687;52.160;5.298;2022-09-09T06:08:32;4.47;;;1.73;;
43994;SDS011;51687;52.160;5.298;2022-09-09T06:11:14;6.57;;;1.92;;
43994;SDS011;51687;52.160;5.298;2022-09-09T06:13:49;4.38;;;1.65;;
43994;SDS011;51687;52.160;5.298;2022-09-09T06:16:21;7.32;;;1.73;;
43994;SDS011;51687;52.160;5.298;2022-09-09T06:18:50;7.53;;;1.83;;
43994;SDS011;51687;52.160;5.298;2022-09-09T06:21:18;6.93;;;1.63;;
43994;SDS011;51687;52.160;5.298;2022-09-09T06:23:46;5.78;;;1.70;;
43994;SDS011;51687;52.160;5.298;2022-09-09T06:26:20;6.05;;;2.10;;
43994;SDS011;51687;52.160;5.298;2022-09-09T06:28:49;5.90;;;1.75;;
43994;SDS011;51687;52.160;5.298;2022-09-09T06:33:55;9.00;;;2.08;;
43994;SDS011;51687;52.160;5.298;2022-09-09T06:38:49;7.50;;;1.70;;
43994;SDS011;51687;52.160;5.298;2022-09-09T06:41:17;7.20;;;2.83;;
43994;SDS011;51687;52.160;5.298;2022-09-09T06:43:46;13.18;;;3.22;;
43994;SDS011;51687;52.160;5.298;2022-09-09T06:46:15;8.75;;;3.10;;
43994;SDS011;51687;52.160;5.298;2022-09-09T06:48:49;4.43;;;1.85;;
43994;SDS011;51687;52.160;5.298;2022-09-09T06:51:17;8.45;;;2.30;;
43994;SDS011;51687;52.160;5.298;2022-09-09T06:56:20;3.83;;;1.77;;
43994;SDS011;51687;52.160;5.298;2022-09-09T06:58:53;8.77;;;1.95;;
43994;SDS011;51687;52.160;5.298;2022-09-09T07:01:23;6.65;;;1.77;;
43994;SDS011;51687;52.160;5.298;2022-09-09T07:03:54;6.22;;;2.22;;
43994;SDS011;51687;52.160;5.298;2022-09-09T07:06:23;6.68;;;2.03;;
43994;SDS011;51687;52.160;5.298;2022-09-09T07:09:00;6.72;;;1.65;;
43994;SDS011;51687;52.160;5.298;2022-09-09T07:11:33;4.43;;;1.70;;
43994;SDS011;51687;52.160;5.298;2022-09-09T07:14:00;9.90;;;2.42;;
43994;SDS011;51687;52.160;5.298;2022-09-09T07:16:28;9.48;;;3.10;;
43994;SDS011;51687;52.160;5.298;2022-09-09T07:18:59;6.97;;;2.13;;
43994;SDS011;51687;52.160;5.298;2022-09-09T07:21:27;8.25;;;2.40;;
43994;SDS011;51687;52.160;5.298;2022-09-09T07:23:57;9.07;;;2.45;;
43994;SDS011;51687;52.160;5.298;2022-09-09T07:26:25;4.80;;;2.22;;
43994;SDS011;51687;52.160;5.298;2022-09-09T07:28:53;5.75;;;2.00;;
43994;SDS011;51687;52.160;5.298;2022-09-09T07:31:23;8.82;;;2.38;;
43994;SDS011;51687;52.160;5.298;2022-09-09T07:33:52;9.63;;;2.05;;
43994;SDS011;51687;52.160;5.298;2022-09-09T07:38:49;4.30;;;1.90;;
43994;SDS011;51687;52.160;5.298;2022-09-09T07:41:25;6.93;;;1.80;;
43994;SDS011;51687;52.160;5.298;2022-09-09T07:43:58;7.65;;;2.00;;
43994;SDS011;51687;52.160;5.298;2022-09-09T07:46:26;8.30;;;2.40;;
43994;SDS011;51687;52.160;5.298;2022-09-09T07:48:53;8.20;;;1.70;;
43994;SDS011;51687;52.160;5.298;2022-09-09T07:51:23;7.63;;;2.40;;
43994;SDS011;51687;52.160;5.298;2022-09-09T07:53:55;6.95;;;1.90;;
43994;SDS011;51687;52.160;5.298;2022-09-09T07:56:27;7.72;;;2.20;;
43994;SDS011;51687;52.160;5.298;2022-09-09T07:58:55;6.35;;;2.05;;
43994;SDS011;51687;52.160;5.298;2022-09-09T08:01:25;5.97;;;2.20;;
43994;SDS011;51687;52.160;5.298;2022-09-09T08:03:58;7.78;;;2.20;;
43994;SDS011;51687;52.160;5.298;2022-09-09T08:06:30;8.43;;;2.00;;
43994;SDS011;51687;52.160;5.298;2022-09-09T08:08:59;6.03;;;1.90;;
43994;SDS011;51687;52.160;5.298;2022-09-09T08:11:27;6.53;;;2.17;;
43994;SDS011;51687;52.160;5.298;2022-09-09T08:13:55;9.57;;;1.98;;
43994;SDS011;51687;52.160;5.298;2022-09-09T08:16:31;4.38;;;1.92;;
43994;SDS011;51687;52.160;5.298;2022-09-09T08:19:00;7.32;;;2.33;;
43994;SDS011;51687;52.160;5.298;2022-09-09T08:21:28;9.45;;;2.20;;
43994;SDS011;51687;52.160;5.298;2022-09-09T08:23:56;8.40;;;2.40;;
43994;SDS011;51687;52.160;5.298;2022-09-09T08:28:57;8.73;;;2.15;;
43994;SDS011;51687;52.160;5.298;2022-09-09T08:31:29;6.78;;;1.83;;
43994;SDS011;51687;52.160;5.298;2022-09-09T08:34:01;10.57;;;1.88;;
43994;SDS011;51687;52.160;5.298;2022-09-09T08:36:31;7.45;;;1.92;;
43994;SDS011;51687;52.160;5.298;2022-09-09T08:39:00;4.90;;;1.95;;
43994;SDS011;51687;52.160;5.298;2022-09-09T08:53:01;9.93;;;1.88;;
43994;SDS011;51687;52.160;5.298;2022-09-09T08:55:53;4.80;;;1.35;;
43994;SDS011;51687;52.160;5.298;2022-09-09T09:04:07;6.85;;;1.80;;
43994;SDS011;51687;52.160;5.298;2022-09-09T09:12:19;9.90;;;2.50;;
43994;SDS011;51687;52.160;5.298;2022-09-09T09:14:49;6.13;;;2.03;;
43994;SDS011;51687;52.160;5.298;2022-09-09T09:17:19;6.25;;;2.05;;
43994;SDS011;51687;52.160;5.298;2022-09-09T09:19:49;6.25;;;1.70;;
43994;SDS011;51687;52.160;5.298;2022-09-09T09:22:20;7.05;;;1.85;;
43994;SDS011;51687;52.160;5.298;2022-09-09T09:25:21;8.23;;;1.60;;
43994;SDS011;51687;52.160;5.298;2022-09-09T09:30:49;9.95;;;2.15;;
43994;SDS011;51687;52.160;5.298;2022-09-09T09:33:35;7.57;;;1.80;;
43994;SDS011;51687;52.160;5.298;2022-09-09T09:36:07;9.27;;;2.05;;
43994;SDS011;51687;52.160;5.298;2022-09-09T09:38:35;7.90;;;1.92;;
43994;SDS011;51687;52.160;5.298;2022-09-09T09:44:01;6.78;;;1.80;;
43994;SDS011;51687;52.160;5.298;2022-09-09T09:46:30;9.93;;;2.08;;
43994;SDS011;51687;52.160;5.298;2022-09-09T09:49:00;7.07;;;1.80;;
43994;SDS011;51687;52.160;5.298;2022-09-09T09:51:29;6.53;;;1.92;;
43994;SDS011;51687;52.160;5.298;2022-09-09T09:54:09;6.57;;;1.60;;
43994;SDS011;51687;52.160;5.298;2022-09-09T09:56:39;12.63;;;2.13;;
43994;SDS011;51687;52.160;5.298;2022-09-09T09:59:59;5.38;;;2.20;;
43994;SDS011;51687;52.160;5.298;2022-09-09T10:02:19;8.07;;;1.77;;
43994;SDS011;51687;52.160;5.298;2022-09-09T10:13:42;8.95;;;2.05;;
43994;SDS011;51687;52.160;5.298;2022-09-09T10:19:15;7.22;;;2.85;;
43994;SDS011;51687;52.160;5.298;2022-09-09T10:30:24;6.88;;;1.75;;
43994;SDS011;51687;52.160;5.298;2022-09-09T10:33:09;8.98;;;2.45;;
43994;SDS011;51687;52.160;5.298;2022-09-09T10:38:27;8.75;;;2.08;;
43994;SDS011;51687;52.160;5.298;2022-09-09T10:41:03;4.40;;;1.80;;
43994;SDS011;51687;52.160;5.298;2022-09-09T10:52:31;8.60;;;1.67;;
43994;SDS011;51687;52.160;5.298;2022-09-09T10:55:06;6.97;;;1.85;;
43994;SDS011;51687;52.160;5.298;2022-09-09T10:57:55;8.20;;;1.95;;
43994;SDS011;51687;52.160;5.298;2022-09-09T11:00:26;9.82;;;2.60;;
43994;SDS011;51687;52.160;5.298;2022-09-09T11:03:03;6.22;;;1.95;;
43994;SDS011;51687;52.160;5.298;2022-09-09T11:05:39;8.13;;;1.70;;
43994;SDS011;51687;52.160;5.298;2022-09-09T11:08:23;4.75;;;1.40;;
43994;SDS011;51687;52.160;5.298;2022-09-09T11:11:08;6.20;;;1.92;;
43994;SDS011;51687;52.160;5.298;2022-09-09T11:16:26;5.97;;;1.88;;
43994;SDS011;51687;52.160;5.298;2022-09-09T11:21:48;7.03;;;1.88;;
43994;SDS011;51687;52.160;5.298;2022-09-09T11:27:02;5.63;;;1.83;;
43994;SDS011;51687;52.160;5.298;2022-09-09T11:29:44;5.10;;;1.63;;
43994;SDS011;51687;52.160;5.298;2022-09-09T11:40:31;4.82;;;1.60;;
43994;SDS011;51687;52.160;5.298;2022-09-09T11:43:03;6.47;;;1.67;;
43994;SDS011;51687;52.160;5.298;2022-09-09T11:45:49;6.03;;;1.50;;
43994;SDS011;51687;52.160;5.298;2022-09-09T11:48:59;5.03;;;1.83;;
43994;SDS011;51687;52.160;5.298;2022-09-09T11:51:28;4.88;;;1.50;;
43994;SDS011;51687;52.160;5.298;2022-09-09T11:53:58;4.75;;;1.30;;
43994;SDS011;51687;52.160;5.298;2022-09-09T11:59:01;7.05;;;1.55;;
43994;SDS011;51687;52.160;5.298;2022-09-09T12:01:33;4.28;;;1.33;;
43994;SDS011;51687;52.160;5.298;2022-09-09T12:06:59;5.80;;;2.15;;
43994;SDS011;51687;52.160;5.298;2022-09-09T12:09:48;6.60;;;1.85;;
43994;SDS011;51687;52.160;5.298;2022-09-09T12:12:21;6.40;;;1.63;;
43994;SDS011;51687;52.160;5.298;2022-09-09T12:17:41;4.65;;;1.92;;
43994;SDS011;51687;52.160;5.298;2022-09-09T12:20:15;4.72;;;1.60;;
43994;SDS011;51687;52.160;5.298;2022-09-09T12:28:14;5.72;;;1.65;;
43994;SDS011;51687;52.160;5.298;2022-09-09T12:30:49;4.88;;;1.63;;
43994;SDS011;51687;52.160;5.298;2022-09-09T12:33:44;6.30;;;1.40;;
43994;SDS011;51687;52.160;5.298;2022-09-09T12:36:15;3.65;;;1.45;;
43994;SDS011;51687;52.160;5.298;2022-09-09T12:38:45;4.13;;;1.58;;
43994;SDS011;51687;52.160;5.298;2022-09-09T12:41:19;6.50;;;1.88;;
43994;SDS011;51687;52.160;5.298;2022-09-09T12:44:03;5.65;;;2.30;;
43994;SDS011;51687;52.160;5.298;2022-09-09T12:46:38;7.80;;;1.58;;
43994;SDS011;51687;52.160;5.298;2022-09-09T12:49:24;5.20;;;1.80;;
43994;SDS011;51687;52.160;5.298;2022-09-09T12:52:03;6.90;;;2.38;;
43994;SDS011;51687;52.160;5.298;2022-09-09T12:54:33;6.15;;;2.47;;
43994;SDS011;51687;52.160;5.298;2022-09-09T12:57:02;5.10;;;2.00;;
43994;SDS011;51687;52.160;5.298;2022-09-09T12:59:38;5.07;;;2.20;;
43994;SDS011;51687;52.160;5.298;2022-09-09T13:02:11;4.85;;;2.40;;
43994;SDS011;51687;52.160;5.298;2022-09-09T13:04:51;8.48;;;3.08;;
43994;SDS011;51687;52.160;5.298;2022-09-09T13:07:19;5.53;;;2.07;;
43994;SDS011;51687;52.160;5.298;2022-09-09T13:09:47;11.00;;;2.50;;
43994;SDS011;51687;52.160;5.298;2022-09-09T13:12:19;7.13;;;2.30;;
43994;SDS011;51687;52.160;5.298;2022-09-09T13:14:50;4.65;;;2.60;;
43994;SDS011;51687;52.160;5.298;2022-09-09T13:17:20;4.55;;;1.92;;
43994;SDS011;51687;52.160;5.298;2022-09-09T13:19:49;6.60;;;2.17;;
43994;SDS011;51687;52.160;5.298;2022-09-09T13:22:20;4.18;;;1.50;;
43994;SDS011;51687;52.160;5.298;2022-09-09T13:27:33;4.80;;;1.90;;
43994;SDS011;51687;52.160;5.298;2022-09-09T13:30:22;6.55;;;2.08;;
43994;SDS011;51687;52.160;5.298;2022-09-09T13:38:24;4.45;;;1.75;;
43994;SDS011;51687;52.160;5.298;2022-09-09T13:41:03;4.80;;;2.30;;
43994;SDS011;51687;52.160;5.298;2022-09-09T13:43:34;7.35;;;2.35;;
43994;SDS011;51687;52.160;5.298;2022-09-09T13:46:22;4.45;;;1.90;;
43994;SDS011;51687;52.160;5.298;2022-09-09T13:51:49;5.63;;;2.38;;
43994;SDS011;51687;52.160;5.298;2022-09-09T13:54:19;6.50;;;2.53;;
43994;SDS011;51687;52.160;5.298;2022-09-09T13:59:15;17.20;;;3.90;;
43994;SDS011;51687;52.160;5.298;2022-09-09T14:01:46;7.47;;;2.42;;
43994;SDS011;51687;52.160;5.298;2022-09-09T14:04:12;4.68;;;2.10;;
43994;SDS011;51687;52.160;5.298;2022-09-09T14:06:39;5.93;;;2.72;;
43994;SDS011;51687;52.160;5.298;2022-09-09T14:09:06;6.97;;;2.58;;
43994;SDS011;51687;52.160;5.298;2022-09-09T14:11:35;5.03;;;2.13;;
43994;SDS011;51687;52.160;5.298;2022-09-09T14:14:02;4.97;;;2.33;;
43994;SDS011;51687;52.160;5.298;2022-09-09T14:16:29;3.60;;;2.05;;
43994;SDS011;51687;52.160;5.298;2022-09-09T14:18:56;6.03;;;2.05;;
43994;SDS011;51687;52.160;5.298;2022-09-09T14:21:23;4.38;;;2.33;;
43994;SDS011;51687;52.160;5.298;2022-09-09T14:23:50;5.68;;;2.40;;
43994;SDS011;51687;52.160;5.298;2022-09-09T14:26:19;8.15;;;2.35;;
43994;SDS011;51687;52.160;5.298;2022-09-09T14:31:20;6.97;;;2.78;;
43994;SDS011;51687;52.160;5.298;2022-09-09T14:33:48;6.40;;;2.47;;
43994;SDS011;51687;52.160;5.298;2022-09-09T14:36:15;4.07;;;2.25;;
43994;SDS011;51687;52.160;5.298;2022-09-09T14:38:41;9.00;;;2.75;;
43994;SDS011;51687;52.160;5.298;2022-09-09T14:41:09;7.35;;;2.70;;
43994;SDS011;51687;52.160;5.298;2022-09-09T14:43:38;6.82;;;2.67;;
43994;SDS011;51687;52.160;5.298;2022-09-09T14:46:08;4.10;;;2.25;;
43994;SDS011;51687;52.160;5.298;2022-09-09T14:48:40;5.38;;;2.53;;
43994;SDS011;51687;52.160;5.298;2022-09-09T14:51:07;5.57;;;2.80;;
43994;SDS011;51687;52.160;5.298;2022-09-09T14:53:36;4.80;;;2.58;;
43994;SDS011;51687;52.160;5.298;2022-09-09T14:56:04;5.57;;;2.60;;
43994;SDS011;51687;52.160;5.298;2022-09-09T14:58:33;6.70;;;2.80;;
43994;SDS011;51687;52.160;5.298;2022-09-09T15:01:08;5.35;;;2.83;;
43994;SDS011;51687;52.160;5.298;2022-09-09T15:03:39;5.22;;;2.25;;
43994;SDS011;51687;52.160;5.298;2022-09-09T15:08:35;4.93;;;2.50;;
43994;SDS011;51687;52.160;5.298;2022-09-09T15:11:08;5.28;;;2.15;;
43994;SDS011;51687;52.160;5.298;2022-09-09T15:13:36;6.60;;;2.08;;
43994;SDS011;51687;52.160;5.298;2022-09-09T15:16:05;4.88;;;2.03;;
43994;SDS011;51687;52.160;5.298;2022-09-09T15:18:33;6.68;;;2.13;;
43994;SDS011;51687;52.160;5.298;2022-09-09T15:21:00;5.72;;;1.90;;
43994;SDS011;51687;52.160;5.298;2022-09-09T15:23:30;3.65;;;1.50;;
43994;SDS011;51687;52.160;5.298;2022-09-09T15:26:02;2.67;;;1.30;;
43994;SDS011;51687;52.160;5.298;2022-09-09T15:28:39;4.88;;;1.38;;
43994;SDS011;51687;52.160;5.298;2022-09-09T15:33:34;5.80;;;1.48;;
43994;SDS011;51687;52.160;5.298;2022-09-09T15:36:14;7.85;;;1.10;;
43994;SDS011;51687;52.160;5.298;2022-09-09T15:38:43;2.97;;;1.20;;
43994;SDS011;51687;52.160;5.298;2022-09-09T15:41:11;3.03;;;1.10;;
43994;SDS011;51687;52.160;5.298;2022-09-09T15:43:42;6.25;;;1.35;;
43994;SDS011;51687;52.160;5.298;2022-09-09T15:48:44;2.85;;;0.90;;
43994;SDS011;51687;52.160;5.298;2022-09-09T15:51:14;4.18;;;1.00;;
43994;SDS011;51687;52.160;5.298;2022-09-09T15:54:00;3.97;;;0.90;;
43994;SDS011;51687;52.160;5.298;2022-09-09T15:56:28;2.03;;;0.82;;
43994;SDS011;51687;52.160;5.298;2022-09-09T15:58:59;1.40;;;0.80;;
43994;SDS011;51687;52.160;5.298;2022-09-09T16:03:54;3.05;;;1.15;;
43994;SDS011;51687;52.160;5.298;2022-09-09T16:06:22;4.22;;;1.20;;
43994;SDS011;51687;52.160;5.298;2022-09-09T16:08:51;2.75;;;0.90;;
43994;SDS011;51687;52.160;5.298;2022-09-09T16:13:49;3.65;;;0.82;;
43994;SDS011;51687;52.160;5.298;2022-09-09T16:16:18;3.38;;;1.00;;
43994;SDS011;51687;52.160;5.298;2022-09-09T16:18:52;4.32;;;0.90;;
43994;SDS011;51687;52.160;5.298;2022-09-09T16:21:21;4.28;;;1.30;;
43994;SDS011;51687;52.160;5.298;2022-09-09T16:23:53;2.63;;;0.80;;
43994;SDS011;51687;52.160;5.298;2022-09-09T16:26:21;2.45;;;0.90;;
43994;SDS011;51687;52.160;5.298;2022-09-09T16:28:49;1.92;;;0.98;;
43994;SDS011;51687;52.160;5.298;2022-09-09T16:31:17;2.85;;;1.02;;
43994;SDS011;51687;52.160;5.298;2022-09-09T16:33:46;3.60;;;1.50;;
43994;SDS011;51687;52.160;5.298;2022-09-09T16:36:14;2.97;;;1.20;;
43994;SDS011;51687;52.160;5.298;2022-09-09T16:38:43;3.00;;;1.20;;
43994;SDS011;51687;52.160;5.298;2022-09-09T16:41:11;2.67;;;1.27;;
43994;SDS011;51687;52.160;5.298;2022-09-09T16:43:38;2.95;;;1.10;;
43994;SDS011;51687;52.160;5.298;2022-09-09T16:48:44;3.95;;;1.27;;
43994;SDS011;51687;52.160;5.298;2022-09-09T16:51:16;3.45;;;1.08;;
43994;SDS011;51687;52.160;5.298;2022-09-09T16:54:01;3.88;;;1.38;;
43994;SDS011;51687;52.160;5.298;2022-09-09T16:56:30;3.05;;;1.20;;
43994;SDS011;51687;52.160;5.298;2022-09-09T16:59:04;3.28;;;1.92;;
43994;SDS011;51687;52.160;5.298;2022-09-09T17:01:34;4.05;;;1.30;;
43994;SDS011;51687;52.160;5.298;2022-09-09T17:04:04;4.05;;;1.50;;
43994;SDS011;51687;52.160;5.298;2022-09-09T17:06:35;3.78;;;1.45;;
43994;SDS011;51687;52.160;5.298;2022-09-09T17:09:04;3.85;;;1.70;;
43994;SDS011;51687;52.160;5.298;2022-09-09T17:11:33;4.60;;;1.50;;
43994;SDS011;51687;52.160;5.298;2022-09-09T17:14:00;5.35;;;1.60;;
43994;SDS011;51687;52.160;5.298;2022-09-09T17:16:28;3.30;;;1.73;;
43994;SDS011;51687;52.160;5.298;2022-09-09T17:18:57;3.88;;;1.80;;
43994;SDS011;51687;52.160;5.298;2022-09-09T17:21:25;4.68;;;2.38;;
43994;SDS011;51687;52.160;5.298;2022-09-09T17:23:53;3.75;;;1.95;;
43994;SDS011;51687;52.160;5.298;2022-09-09T17:26:22;3.50;;;1.98;;
43994;SDS011;51687;52.160;5.298;2022-09-09T17:28:53;4.32;;;1.85;;
43994;SDS011;51687;52.160;5.298;2022-09-09T17:31:25;6.45;;;2.67;;
43994;SDS011;51687;52.160;5.298;2022-09-09T17:33:54;3.60;;;2.20;;
43994;SDS011;51687;52.160;5.298;2022-09-09T17:36:22;3.50;;;2.03;;
43994;SDS011;51687;52.160;5.298;2022-09-09T17:38:51;3.95;;;1.83;;
43994;SDS011;51687;52.160;5.298;2022-09-09T17:41:19;6.07;;;2.05;;
43994;SDS011;51687;52.160;5.298;2022-09-09T17:43:48;5.40;;;1.92;;
43994;SDS011;51687;52.160;5.298;2022-09-09T17:46:17;4.20;;;2.13;;
43994;SDS011;51687;52.160;5.298;2022-09-09T17:48:49;4.72;;;2.20;;
43994;SDS011;51687;52.160;5.298;2022-09-09T17:51:19;6.22;;;2.50;;
43994;SDS011;51687;52.160;5.298;2022-09-09T17:53:51;5.78;;;2.75;;
43994;SDS011;51687;52.160;5.298;2022-09-09T17:56:21;3.95;;;2.10;;
43994;SDS011;51687;52.160;5.298;2022-09-09T17:58:49;3.03;;;2.10;;
43994;SDS011;51687;52.160;5.298;2022-09-09T18:01:17;3.10;;;2.22;;
43994;SDS011;51687;52.160;5.298;2022-09-09T18:03:47;3.45;;;2.03;;
43994;SDS011;51687;52.160;5.298;2022-09-09T18:06:16;4.55;;;2.10;;
43994;SDS011;51687;52.160;5.298;2022-09-09T18:08:48;4.63;;;2.40;;
43994;SDS011;51687;52.160;5.298;2022-09-09T18:11:18;3.38;;;2.00;;